createdAt,value
2022-10-14T00:01:43.952Z,13.70
2022-10-14T00:04:16.022Z,13.40
2022-10-14T00:09:20.758Z,13.70
2022-10-14T00:11:54.669Z,13.60
2022-10-14T00:14:36.584Z,13.60
2022-10-14T00:17:10.620Z,13.60
2022-10-14T00:19:45.354Z,13.60
2022-10-14T00:22:17.333Z,13.60
2022-10-14T00:24:50.399Z,13.50
2022-10-14T00:27:21.883Z,13.50
2022-10-14T00:29:54.403Z,13.10
2022-10-14T00:32:29.333Z,13.20
2022-10-14T00:34:58.165Z,13.40
2022-10-14T00:37:27.772Z,13.40
2022-10-14T00:39:57.242Z,12.90
2022-10-14T00:45:13.007Z,13.40
2022-10-14T00:47:50.884Z,13.40
2022-10-14T00:50:22.940Z,13.40
2022-10-14T00:58:03.358Z,13.60
2022-10-14T01:00:32.667Z,13.30
2022-10-14T01:03:04.337Z,13.40
2022-10-14T01:05:43.826Z,13.70
2022-10-14T01:08:21.967Z,13.40
2022-10-14T01:11:06.448Z,13.40
2022-10-14T01:13:40.809Z,13.50
2022-10-14T01:16:27.973Z,13.50
2022-10-14T01:19:28.092Z,13.50
2022-10-14T01:22:06.419Z,13.50
2022-10-14T01:24:52.295Z,13.50
2022-10-14T01:27:55.107Z,13.50
2022-10-14T01:30:26.737Z,13.30
2022-10-14T01:33:18.196Z,13.60
2022-10-14T01:36:01.690Z,14.10
2022-10-14T01:38:38.607Z,13.50
2022-10-14T01:41:18.986Z,13.50
2022-10-14T01:43:52.830Z,13.60
2022-10-14T01:46:33.612Z,13.50
2022-10-14T01:49:11.000Z,13.50
2022-10-14T01:51:45.768Z,13.50
2022-10-14T01:54:23.139Z,13.50
2022-10-14T01:56:55.317Z,13.90
2022-10-14T01:59:41.034Z,13.70
2022-10-14T02:02:17.799Z,13.50
2022-10-14T02:04:48.919Z,13.40
2022-10-14T02:07:27.446Z,13.50
2022-10-14T02:10:05.119Z,13.50
2022-10-14T02:12:42.347Z,13.50
2022-10-14T02:15:24.227Z,12.30
2022-10-14T02:18:05.178Z,13.40
2022-10-14T02:20:40.301Z,13.40
2022-10-14T02:23:20.833Z,13.80
2022-10-14T02:25:51.737Z,13.50
2022-10-14T02:28:25.430Z,13.00
2022-10-14T02:31:03.723Z,13.40
2022-10-14T02:33:54.495Z,13.40
2022-10-14T02:36:36.933Z,13.40
2022-10-14T02:39:23.607Z,13.50
2022-10-14T02:42:06.989Z,13.40
2022-10-14T02:44:55.875Z,13.40
2022-10-14T02:47:30.578Z,13.30
2022-10-14T02:50:03.504Z,13.40
2022-10-14T02:52:46.082Z,13.30
2022-10-14T02:55:29.541Z,12.80
2022-10-14T02:58:16.634Z,13.40
2022-10-14T03:01:12.177Z,11.00
2022-10-14T03:03:52.188Z,13.30
2022-10-14T03:06:44.504Z,13.30
2022-10-14T03:09:18.894Z,13.20
2022-10-14T03:12:00.976Z,13.50
2022-10-14T03:14:33.823Z,12.50
2022-10-14T03:17:29.553Z,13.30
2022-10-14T03:20:29.557Z,13.30
2022-10-14T03:23:19.147Z,13.30
2022-10-14T03:26:09.495Z,13.40
2022-10-14T03:28:58.778Z,13.30
2022-10-14T03:31:34.358Z,13.10
2022-10-14T03:34:22.784Z,13.20
2022-10-14T03:37:04.207Z,12.90
2022-10-14T03:45:25.056Z,13.30
2022-10-14T03:50:34.554Z,13.30
2022-10-14T03:53:21.409Z,13.20
2022-10-14T03:56:09.440Z,12.90
2022-10-14T03:58:49.475Z,13.30
2022-10-14T04:06:56.488Z,13.20
2022-10-14T04:09:45.225Z,13.20
2022-10-14T04:12:24.945Z,13.20
2022-10-14T04:15:34.665Z,13.20
2022-10-14T04:26:15.849Z,13.20
2022-10-14T04:28:59.156Z,13.20
2022-10-14T04:31:31.492Z,13.30
2022-10-14T04:34:08.380Z,13.00
2022-10-14T04:36:50.393Z,13.30
2022-10-14T04:39:23.699Z,13.20
2022-10-14T04:42:13.167Z,13.30
2022-10-14T04:44:47.749Z,13.30
2022-10-14T04:52:29.193Z,13.20
2022-10-14T05:05:33.230Z,13.30
2022-10-14T05:10:59.558Z,13.40
2022-10-14T05:24:02.184Z,13.40
2022-10-14T05:57:57.641Z,13.40
2022-10-14T06:03:12.042Z,13.60
2022-10-14T06:16:16.300Z,13.50
2022-10-14T06:18:48.093Z,13.70
2022-10-14T06:21:20.127Z,13.90
2022-10-14T06:23:48.860Z,13.70
2022-10-14T06:26:18.906Z,13.70
2022-10-14T06:28:47.931Z,13.70
2022-10-14T06:31:16.211Z,13.70
2022-10-14T06:33:45.686Z,13.70
2022-10-14T06:36:14.336Z,13.80
2022-10-14T06:38:44.295Z,13.80
2022-10-14T06:41:12.816Z,13.80
2022-10-14T06:43:45.323Z,13.80
2022-10-14T06:46:13.822Z,13.60
2022-10-14T06:48:48.044Z,13.90
2022-10-14T06:51:20.796Z,14.00
2022-10-14T06:53:49.425Z,14.00
2022-10-14T06:56:18.019Z,14.10
2022-10-14T06:58:46.486Z,14.10
2022-10-14T07:01:15.209Z,14.20
2022-10-14T07:03:43.594Z,14.20
2022-10-14T07:06:12.303Z,14.20
2022-10-14T07:08:42.215Z,14.20
2022-10-14T07:11:10.781Z,14.30
2022-10-14T07:13:41.588Z,14.30
2022-10-14T07:16:10.017Z,14.40
2022-10-14T07:18:39.580Z,14.40
2022-10-14T07:21:09.988Z,14.50
2022-10-14T07:23:40.666Z,14.60
2022-10-14T07:26:11.019Z,14.60
2022-10-14T07:28:39.464Z,14.70
2022-10-14T07:31:09.538Z,14.80
2022-10-14T07:33:41.267Z,14.80
2022-10-14T07:36:11.610Z,14.90
2022-10-14T07:38:41.578Z,14.90
2022-10-14T07:41:17.215Z,15.00
2022-10-14T07:43:46.422Z,15.10
2022-10-14T07:46:18.796Z,15.10
2022-10-14T07:48:57.302Z,15.00
2022-10-14T07:51:26.190Z,15.10
2022-10-14T07:53:54.926Z,14.90
2022-10-14T07:56:25.398Z,15.20
2022-10-14T07:58:56.782Z,15.30
2022-10-14T08:01:25.968Z,15.30
2022-10-14T08:03:55.884Z,15.40
2022-10-14T08:06:25.686Z,15.50
2022-10-14T08:08:57.604Z,15.60
2022-10-14T08:11:30.185Z,15.70
2022-10-14T08:14:01.649Z,15.80
2022-10-14T08:16:33.529Z,16.00
2022-10-14T08:19:03.796Z,16.30
2022-10-14T08:21:35.068Z,15.80
2022-10-14T08:24:03.737Z,15.90
2022-10-14T08:26:37.664Z,15.90
2022-10-14T08:29:11.137Z,15.90
2022-10-14T08:31:40.515Z,15.70
2022-10-14T08:34:14.213Z,15.90
2022-10-14T08:36:43.047Z,16.00
2022-10-14T08:39:13.379Z,16.00
2022-10-14T08:42:16.438Z,15.90
2022-10-14T08:44:55.296Z,16.00
2022-10-14T08:47:42.674Z,16.00
2022-10-14T08:50:24.858Z,16.00
2022-10-14T08:52:58.303Z,16.10
2022-10-14T08:55:35.513Z,16.30
2022-10-14T08:58:18.190Z,16.30
2022-10-14T09:00:56.305Z,16.40
2022-10-14T09:03:33.853Z,16.40
2022-10-14T09:06:13.022Z,16.50
2022-10-14T09:08:44.323Z,16.60
2022-10-14T09:11:19.360Z,16.70
2022-10-14T09:13:54.690Z,16.70
2022-10-14T09:16:26.088Z,16.60
2022-10-14T09:18:58.427Z,16.60
2022-10-14T09:24:31.483Z,16.70
2022-10-14T09:27:04.717Z,16.80
2022-10-14T09:29:39.127Z,16.90
2022-10-14T09:32:11.006Z,16.80
2022-10-14T09:34:42.155Z,16.80
2022-10-14T09:37:26.470Z,16.90
2022-10-14T09:39:57.669Z,16.90
2022-10-14T09:42:28.835Z,17.00
2022-10-14T09:45:08.764Z,17.70
2022-10-14T09:47:54.531Z,17.10
2022-10-14T09:50:32.021Z,17.00
2022-10-14T09:53:10.659Z,17.20
2022-10-14T09:55:51.289Z,16.90
2022-10-14T09:58:31.043Z,16.90
2022-10-14T10:01:07.682Z,16.70
2022-10-14T10:03:43.411Z,16.70
2022-10-14T10:06:22.844Z,16.70
2022-10-14T10:09:01.649Z,16.60
2022-10-14T10:11:33.983Z,16.70
2022-10-14T10:14:18.080Z,16.70
2022-10-14T10:16:48.540Z,16.80
2022-10-14T10:19:32.739Z,16.90
2022-10-14T10:22:24.350Z,16.90
2022-10-14T10:25:15.395Z,17.00
2022-10-14T10:27:50.526Z,17.40
2022-10-14T10:30:26.684Z,17.40
2022-10-14T10:33:26.251Z,17.80
2022-10-14T10:36:10.076Z,17.70
2022-10-14T10:38:52.118Z,17.80
2022-10-14T10:41:36.520Z,17.60
2022-10-14T10:44:36.644Z,17.10
2022-10-14T10:47:31.883Z,17.20
2022-10-14T10:50:30.512Z,17.30
2022-10-14T10:53:34.787Z,17.00
2022-10-14T10:56:15.661Z,17.10
2022-10-14T10:58:56.655Z,17.30
2022-10-14T11:01:36.778Z,17.20
2022-10-14T11:04:20.935Z,17.30
2022-10-14T11:07:15.804Z,17.00
2022-10-14T11:10:10.740Z,17.10
2022-10-14T11:12:47.346Z,17.00
2022-10-14T11:15:28.014Z,16.90
2022-10-14T11:18:01.754Z,17.10
2022-10-14T11:20:39.781Z,17.30
2022-10-14T11:23:30.601Z,17.50
2022-10-14T11:26:04.354Z,17.10
2022-10-14T11:28:45.698Z,17.10
2022-10-14T11:31:25.483Z,17.10
2022-10-14T11:34:08.335Z,17.00
2022-10-14T11:36:46.660Z,16.90
2022-10-14T11:39:36.039Z,16.90
2022-10-14T11:42:15.365Z,16.90
2022-10-14T11:44:46.336Z,16.90
2022-10-14T11:47:27.453Z,16.90
2022-10-14T11:50:01.628Z,17.00
2022-10-14T11:52:36.747Z,17.10
2022-10-14T11:55:14.793Z,17.20
2022-10-14T11:57:49.553Z,17.20
2022-10-14T12:00:38.871Z,17.30
2022-10-14T12:03:14.067Z,17.30
2022-10-14T12:05:48.417Z,17.40
2022-10-14T12:08:23.027Z,17.00
2022-10-14T12:11:02.530Z,17.50
2022-10-14T12:13:39.779Z,18.10
2022-10-14T12:16:17.935Z,17.80
2022-10-14T12:18:51.592Z,17.70
2022-10-14T12:21:29.129Z,17.60
2022-10-14T12:24:04.607Z,17.70
2022-10-14T12:26:51.550Z,17.90
2022-10-14T12:29:22.991Z,18.40
2022-10-14T12:32:07.747Z,18.60
2022-10-14T12:34:40.422Z,18.60
2022-10-14T12:37:43.440Z,18.30
2022-10-14T12:40:31.652Z,18.20
2022-10-14T12:43:33.322Z,18.20
2022-10-14T12:46:06.325Z,18.50
2022-10-14T12:48:35.049Z,18.90
2022-10-14T12:51:13.264Z,19.10
2022-10-14T12:53:49.608Z,19.00
2022-10-14T12:56:33.967Z,18.60
2022-10-14T12:59:07.024Z,18.90
2022-10-14T13:01:36.909Z,18.50
2022-10-14T13:04:19.950Z,18.70
2022-10-14T13:07:45.687Z,18.40
2022-10-14T13:10:48.842Z,18.20
2022-10-14T13:13:56.578Z,18.20
2022-10-14T13:17:01.241Z,18.00
2022-10-14T13:19:56.814Z,17.90
2022-10-14T13:22:42.764Z,18.10
2022-10-14T13:25:30.417Z,18.10
2022-10-14T13:28:12.949Z,18.10
2022-10-14T13:30:52.139Z,18.30
2022-10-14T13:33:32.921Z,18.20
2022-10-14T13:36:13.535Z,18.10
2022-10-14T13:38:46.688Z,17.80
2022-10-14T13:41:34.678Z,18.00
2022-10-14T13:44:08.846Z,17.80
2022-10-14T13:46:41.025Z,17.70
2022-10-14T13:49:21.513Z,17.70
2022-10-14T13:51:53.741Z,17.80
2022-10-14T13:54:26.662Z,17.90
2022-10-14T14:02:54.527Z,17.40
2022-10-14T14:08:35.278Z,17.30
2022-10-14T14:11:16.302Z,17.40
2022-10-14T14:13:59.953Z,17.30
2022-10-14T14:16:42.662Z,17.30
2022-10-14T14:19:22.108Z,17.30
2022-10-14T14:22:11.510Z,17.30
2022-10-14T14:24:48.951Z,17.20
2022-10-14T14:27:22.046Z,15.50
2022-10-14T14:29:57.086Z,17.50
2022-10-14T14:32:33.478Z,16.90
2022-10-14T14:35:08.838Z,16.90
2022-10-14T14:37:55.528Z,16.70
2022-10-14T14:40:41.658Z,16.60
2022-10-14T14:43:16.700Z,16.60
2022-10-14T14:45:49.437Z,16.90
2022-10-14T14:48:34.507Z,17.10
2022-10-14T14:51:18.891Z,16.60
2022-10-14T14:53:54.990Z,16.60
2022-10-14T14:56:35.923Z,17.00
2022-10-14T14:59:09.251Z,16.80
2022-10-14T15:01:37.421Z,16.70
2022-10-14T15:04:14.871Z,16.70
2022-10-14T15:06:51.324Z,16.60
2022-10-14T15:09:27.790Z,16.70
2022-10-14T15:11:58.004Z,16.70
2022-10-14T15:14:31.446Z,16.70
2022-10-14T15:17:00.245Z,16.50
2022-10-14T15:19:59.105Z,16.50
2022-10-14T15:22:36.558Z,16.50
2022-10-14T15:25:12.068Z,16.60
2022-10-14T15:27:46.773Z,16.50
2022-10-14T15:30:33.827Z,16.50
2022-10-14T15:33:05.751Z,16.50
2022-10-14T15:35:38.673Z,16.40
2022-10-14T15:38:16.150Z,16.40
2022-10-14T15:40:46.922Z,16.40
2022-10-14T15:43:20.461Z,16.30
2022-10-14T15:46:10.095Z,16.30
2022-10-14T15:48:43.028Z,16.20
2022-10-14T15:51:16.560Z,16.20
2022-10-14T15:53:45.652Z,16.10
2022-10-14T15:56:17.500Z,16.10
2022-10-14T15:58:46.535Z,16.00
2022-10-14T16:01:20.558Z,16.00
2022-10-14T16:03:49.959Z,16.00
2022-10-14T16:06:20.585Z,16.00
2022-10-14T16:08:51.820Z,16.00
2022-10-14T16:11:25.518Z,16.00
2022-10-14T16:13:55.907Z,16.00
2022-10-14T16:16:34.568Z,16.00
2022-10-14T16:19:03.645Z,15.90
2022-10-14T16:21:33.321Z,15.90
2022-10-14T16:24:06.096Z,15.90
2022-10-14T16:26:38.185Z,15.90
2022-10-14T16:29:06.899Z,15.90
2022-10-14T16:31:37.195Z,15.90
2022-10-14T16:34:09.017Z,15.80
2022-10-14T16:36:41.210Z,15.90
2022-10-14T16:39:10.635Z,15.90
2022-10-14T16:41:43.140Z,15.90
2022-10-14T16:44:24.760Z,15.90
2022-10-14T16:47:11.371Z,15.90
2022-10-14T16:49:41.245Z,15.90
2022-10-14T16:52:11.121Z,15.90
2022-10-14T16:54:39.808Z,15.90
2022-10-14T16:57:09.888Z,15.90
2022-10-14T16:59:39.046Z,15.80
2022-10-14T17:02:11.187Z,15.80
2022-10-14T17:04:45.804Z,15.80
2022-10-14T17:07:18.647Z,15.80
2022-10-14T17:09:48.505Z,15.80
2022-10-14T17:12:40.705Z,15.80
2022-10-14T17:15:16.543Z,15.80
2022-10-14T17:20:22.640Z,15.80
2022-10-14T17:23:09.426Z,15.90
2022-10-14T17:25:52.310Z,15.40
2022-10-14T17:28:37.064Z,15.70
2022-10-14T17:31:28.100Z,15.70
2022-10-14T17:34:15.300Z,15.80
2022-10-14T17:36:55.028Z,15.80
2022-10-14T17:42:13.900Z,15.70
2022-10-14T17:44:53.492Z,15.70
2022-10-14T17:47:35.029Z,15.70
2022-10-14T17:50:18.555Z,15.70
2022-10-14T17:53:06.205Z,15.70
2022-10-14T17:55:41.823Z,14.30
2022-10-14T17:58:18.898Z,15.70
2022-10-14T18:00:50.008Z,15.70
2022-10-14T18:03:30.605Z,15.70
2022-10-14T18:06:14.195Z,15.70
2022-10-14T18:09:03.233Z,16.00
2022-10-14T18:15:04.459Z,15.60
2022-10-14T18:17:45.504Z,15.60
2022-10-14T18:20:27.644Z,15.60
2022-10-14T18:23:04.167Z,15.50
2022-10-14T18:25:38.512Z,15.10
2022-10-14T18:33:55.476Z,15.40
2022-10-14T18:36:42.601Z,15.30
2022-10-14T18:39:23.275Z,15.20
2022-10-14T18:42:07.421Z,14.40
2022-10-14T18:44:59.574Z,15.50
2022-10-14T18:47:41.587Z,16.40
2022-10-14T18:50:27.142Z,14.60
2022-10-14T18:53:16.844Z,15.10
2022-10-14T18:55:56.754Z,15.10
2022-10-14T18:58:32.745Z,15.10
2022-10-14T19:01:10.888Z,15.20
2022-10-14T19:03:57.643Z,15.10
2022-10-14T19:06:35.188Z,15.10
2022-10-14T19:09:16.560Z,15.10
2022-10-14T19:11:53.047Z,15.10
2022-10-14T19:14:28.865Z,15.20
2022-10-14T19:22:20.460Z,15.20
2022-10-14T19:27:25.837Z,15.20
2022-10-14T19:30:02.642Z,15.20
2022-10-14T19:32:58.976Z,15.20
2022-10-14T19:38:40.740Z,15.20
2022-10-14T19:41:18.713Z,12.30
2022-10-14T19:43:59.510Z,15.10
2022-10-14T19:46:41.878Z,15.20
2022-10-14T19:49:22.135Z,14.70
2022-10-14T19:52:02.945Z,15.40
2022-10-14T19:55:08.140Z,15.10
2022-10-14T19:57:46.250Z,14.60
2022-10-14T20:00:25.705Z,15.10
2022-10-14T20:03:06.605Z,15.00
2022-10-14T20:11:13.947Z,15.00
2022-10-14T20:16:34.557Z,15.00
2022-10-14T20:19:15.908Z,15.00
2022-10-14T20:22:05.117Z,15.00
2022-10-14T20:24:48.467Z,14.20
2022-10-14T20:27:27.208Z,12.80
2022-10-14T20:30:04.168Z,15.00
2022-10-14T20:32:45.532Z,15.00
2022-10-14T20:38:09.595Z,15.10
2022-10-14T20:40:44.531Z,15.20
2022-10-14T20:43:21.311Z,16.70
2022-10-14T20:46:02.567Z,15.10
2022-10-14T20:48:40.934Z,15.00
2022-10-14T20:51:21.261Z,15.20
2022-10-14T20:54:01.631Z,12.30
2022-10-14T20:56:47.014Z,15.10
2022-10-14T20:59:28.087Z,14.90
2022-10-14T21:02:03.181Z,16.60
2022-10-14T21:04:39.317Z,15.00
2022-10-14T21:07:22.046Z,15.00
2022-10-14T21:10:03.549Z,16.40
2022-10-14T21:12:49.607Z,15.00
2022-10-14T21:15:32.309Z,15.00
2022-10-14T21:18:19.507Z,14.90
2022-10-14T21:23:30.199Z,15.00
2022-10-14T21:26:15.119Z,15.10
2022-10-14T21:28:54.244Z,15.20
2022-10-14T21:34:28.968Z,15.10
2022-10-14T21:36:59.228Z,15.10
2022-10-14T21:39:34.599Z,15.10
2022-10-14T21:44:37.699Z,16.00
2022-10-14T21:47:17.025Z,15.00
2022-10-14T21:49:51.446Z,15.10
2022-10-14T21:52:39.522Z,15.00
2022-10-14T21:55:25.313Z,15.00
2022-10-14T22:00:37.285Z,15.20
2022-10-14T22:03:11.976Z,15.10
2022-10-14T22:10:53.185Z,15.50
2022-10-14T22:13:29.020Z,15.10
2022-10-14T22:16:06.885Z,15.10
2022-10-14T22:18:46.647Z,15.10
2022-10-14T22:21:35.299Z,15.10
2022-10-14T22:24:38.610Z,15.10
2022-10-14T22:27:38.352Z,15.10
2022-10-14T22:30:19.871Z,15.10
2022-10-14T22:32:53.350Z,15.10
2022-10-14T22:35:31.071Z,15.60
2022-10-14T22:38:08.739Z,15.20
2022-10-14T22:40:43.574Z,15.10
2022-10-14T22:43:18.796Z,15.00
2022-10-14T22:45:55.526Z,15.00
2022-10-14T22:48:34.918Z,15.10
2022-10-14T22:51:28.370Z,14.90
2022-10-14T22:53:59.420Z,15.10
2022-10-14T22:56:35.355Z,14.90
2022-10-14T22:59:09.069Z,15.10
2022-10-14T23:01:46.837Z,15.10
2022-10-14T23:04:17.021Z,14.80
2022-10-14T23:06:57.000Z,15.10
2022-10-14T23:09:28.578Z,15.10
2022-10-14T23:12:07.824Z,15.00
2022-10-14T23:17:14.764Z,15.40
2022-10-14T23:20:01.660Z,14.90
2022-10-14T23:22:40.395Z,15.10
2022-10-14T23:25:18.482Z,15.10
2022-10-14T23:27:54.754Z,15.10
2022-10-14T23:30:37.111Z,15.10
2022-10-14T23:33:37.586Z,16.70
2022-10-14T23:36:39.628Z,15.00
2022-10-14T23:39:30.269Z,15.60
2022-10-14T23:42:13.104Z,15.10
2022-10-14T23:44:49.151Z,15.10
2022-10-14T23:53:12.416Z,15.10
2022-10-14T23:55:54.748Z,15.00
